This is the latest recevied weather packets stored in our database for station/object K7DC. If no packets are shown the sender has not sent any weather packets the latest 10 day(s).
| Time | Temp. | Humidity | Pressure | Rain* | Wind** | Luminosity | Snow |
|---|---|---|---|---|---|---|---|
| 1777844307 | 32.78° C | 14% | 1010.6 hPa | 0 mm | - | 515 W/m² | - |
| 1777844005 | 32.78° C | 14% | 1010.8 hPa | 0 mm | - | 540 W/m² | - |
| 1777843097 | 32.78° C | 14% | 1011.4 hPa | 0 mm | - | 530 W/m² | - |
| 1777842794 | 32.78° C | 14% | 1011.4 hPa | 0 mm | - | 514 W/m² | - |
| 1777841886 | 32.22° C | 14% | 1011.4 hPa | 0 mm | - | 470 W/m² | - |
| 1777840674 | 32.22° C | 14% | 1011.7 hPa | 0 mm | - | 472 W/m² | - |
| 1777840068 | 32.22° C | 15% | 1012.1 hPa | 0 mm | - | 512 W/m² | - |
| 1777839766 | 32.22° C | 15% | 1011.9 hPa | 0 mm | - | 525 W/m² | - |
| 1777838554 | 30.56° C | 21% | 1012.1 hPa | 0 mm | - | 493 W/m² | - |
| 1777838251 | 30.56° C | 22% | 1012.2 hPa | 0 mm | - | 474 W/m² | - |
| 1777837948 | 30.56° C | 22% | 1012.1 hPa | 0 mm | - | 489 W/m² | - |
| 1777836125 | 29.44° C | 26% | 1012.9 hPa | 0 mm | - | 497 W/m² | - |
| 1777835519 | 29.44° C | 26% | 1013.1 hPa | 0 mm | - | 514 W/m² | - |
| 1777833090 | 27.22° C | 30% | 1013.9 hPa | 0 mm | - | 368 W/m² | - |
| 1777832788 | 27.78° C | 30% | 1014 hPa | 0 mm | - | 409 W/m² | - |
| 1777832486 | 27.78° C | 29% | 1014.3 hPa | 0 mm | - | 480 W/m² | - |
| 1777832183 | 27.78° C | 30% | 1014.5 hPa | 0 mm | - | 399 W/m² | - |
| 1777831880 | 27.78° C | 31% | 1014.4 hPa | 0 mm | - | 354 W/m² | - |
| 1777831577 | 27.22° C | 31% | 1014.6 hPa | 0 mm | - | 341 W/m² | - |
| 1777831275 | 26.67° C | 31% | 1014.5 hPa | 0 mm | - | 361 W/m² | - |
| 1777829151 | 26.11° C | 31% | 1014.8 hPa | 0 mm | - | 435 W/m² | - |
| 1777827938 | 26.11° C | 30% | 1015.3 hPa | 0 mm | - | 299 W/m² | - |
| 1777827029 | 26.67° C | 29% | 1015.1 hPa | 0 mm | - | 283 W/m² | - |
| 1777825817 | 25° C | 31% | 1015.3 hPa | 0 mm | - | 288 W/m² | - |
| 1777824909 | 23.33° C | 34% | 1015.2 hPa | 0 mm | - | 241 W/m² | - |
* Rain latest hour (hover to see other rain measurements)
** Current wind speed in m/s (hover to see current wind gust speed)